Hulbert, Michigan
Current Conditions -  °F | °C
As of 1:15 PM on Thursday 18 Dec 2014 (Local Time) from KERY Reporting Station
Clear Clear  
Wind Chill: -10°   Ceiling: Unl
Heat Index: -5°   Visibility: 10mi
Dew Point: -9°   Wind: 8mph
Humidity: 75%   Direction: 360°N
Pressure: 30.22"   Gusts: NA
Location:  46.35°N, 85.15°W
Report Text: KERY 181815Z AUTO 36007KT 10SM CLR M05/M09 A3022 RMK AO2 T10521090
Loading
Personal Weather Stations






























Interactive Weather Map New forecast layout! Learn more

10-Day Weather Forecast

Advertisements
Track Severe Weather on mobile